createdAt,value
2022-08-03T05:34:15.156Z,100415.75
2022-08-03T05:37:18.201Z,100411.88
2022-08-03T05:40:21.177Z,100413.09
2022-08-03T05:43:24.109Z,100416.75
2022-08-03T05:46:26.793Z,100421.25
2022-08-03T05:49:29.710Z,100412.50
2022-08-03T05:52:32.360Z,100416.16
2022-08-03T05:55:35.420Z,100416.81
2022-08-03T05:58:38.205Z,100415.59
2022-08-03T06:01:41.184Z,100416.59
2022-08-03T06:04:44.132Z,100417.28
2022-08-03T06:07:47.146Z,100417.75
2022-08-03T06:10:50.790Z,100419.31
2022-08-03T06:13:53.497Z,100427.91
2022-08-03T06:16:56.489Z,100433.28
2022-08-03T06:19:59.372Z,100435.53
2022-08-03T06:23:23.845Z,100439.59
2022-08-03T06:26:46.156Z,100440.06
2022-08-03T06:29:57.826Z,100435.62
2022-08-03T06:33:00.719Z,100438.09
2022-08-03T06:36:04.066Z,100442.97
2022-08-03T06:39:08.147Z,100448.13
2022-08-03T06:42:11.903Z,100448.91
2022-08-03T06:45:14.755Z,100453.03
2022-08-03T06:48:17.854Z,100451.47
2022-08-03T06:51:20.544Z,100454.66
2022-08-03T06:54:24.509Z,100443.19
2022-08-03T06:57:27.454Z,100453.00
2022-08-03T07:00:32.091Z,100447.75
2022-08-03T07:03:34.826Z,100445.94
2022-08-03T07:06:39.192Z,100449.06
2022-08-03T07:09:41.944Z,100443.78
2022-08-03T07:13:00.581Z,100447.63
2022-08-03T07:16:03.352Z,100449.53
2022-08-03T07:19:06.369Z,100448.00
2022-08-03T07:22:09.173Z,100446.91
2022-08-03T07:25:12.169Z,100453.94
2022-08-03T07:28:15.439Z,100449.56
2022-08-03T07:31:18.842Z,100453.16
2022-08-03T07:34:21.672Z,100435.31
2022-08-03T07:37:24.780Z,100444.06
2022-08-03T07:40:28.678Z,100444.94
2022-08-03T07:43:35.046Z,100449.38
2022-08-03T07:46:37.873Z,100450.34
2022-08-03T07:49:42.655Z,100449.63
2022-08-03T07:52:48.200Z,100440.13
2022-08-03T07:55:51.423Z,100446.84
2022-08-03T07:58:54.923Z,100438.66
2022-08-03T08:01:57.903Z,100445.34
2022-08-03T08:05:05.353Z,100443.41
2022-08-03T08:08:08.609Z,100445.25
2022-08-03T08:11:11.680Z,100444.72
2022-08-03T08:14:14.431Z,100446.16
2022-08-03T08:17:17.405Z,100452.53
2022-08-03T08:20:27.950Z,100452.16
2022-08-03T08:23:42.907Z,100450.50
2022-08-03T08:26:46.910Z,100444.56
2022-08-03T08:29:54.573Z,100450.41
2022-08-03T08:33:00.390Z,100439.38
2022-08-03T08:36:03.578Z,100446.34
2022-08-03T08:39:06.268Z,100442.78
2022-08-03T08:42:10.557Z,100443.47
2022-08-03T08:45:15.611Z,100448.91
2022-08-03T08:48:24.664Z,100438.25
2022-08-03T08:51:50.981Z,100444.59
2022-08-03T08:55:04.008Z,100431.97
2022-08-03T08:58:09.606Z,100431.81
2022-08-03T09:01:12.739Z,100429.41
2022-08-03T09:04:15.990Z,100431.28
2022-08-03T09:07:20.391Z,100429.38
2022-08-03T09:10:23.672Z,100434.34
2022-08-03T09:13:26.913Z,100416.31
2022-08-03T09:16:29.738Z,100430.81
2022-08-03T09:19:34.879Z,100430.53
2022-08-03T09:22:52.938Z,100434.91
2022-08-03T09:26:00.068Z,100429.06
2022-08-03T09:29:16.784Z,100418.91
2022-08-03T09:32:22.253Z,100424.16
2022-08-03T09:35:51.588Z,100421.94
2022-08-03T09:39:12.944Z,100422.41
2022-08-03T09:42:18.386Z,100409.31
2022-08-03T09:45:30.040Z,100419.31
2022-08-03T09:48:37.368Z,100412.69
2022-08-03T09:52:32.566Z,100413.22
2022-08-03T09:56:31.642Z,100414.50
2022-08-03T09:58:47.115Z,100407.50
2022-08-03T10:01:49.970Z,100411.62
2022-08-03T10:04:54.238Z,100408.09
2022-08-03T10:07:56.949Z,100400.34
2022-08-03T10:11:00.658Z,100390.97
2022-08-03T10:14:08.408Z,100390.66
2022-08-03T10:17:11.438Z,100383.25
2022-08-03T10:20:15.074Z,100383.88
2022-08-03T10:23:20.131Z,100380.38
2022-08-03T10:26:26.314Z,100376.94
2022-08-03T10:29:33.105Z,100376.50
2022-08-03T10:32:43.111Z,100377.38
2022-08-03T10:35:48.815Z,100381.84
2022-08-03T10:38:53.758Z,100381.44
2022-08-03T10:42:02.746Z,100378.00
2022-08-03T10:45:09.490Z,100376.50
2022-08-03T10:48:14.030Z,100375.25
2022-08-03T10:51:19.260Z,100362.59
2022-08-03T10:54:37.579Z,100354.38
2022-08-03T10:57:58.218Z,100343.66
2022-08-03T11:01:02.222Z,100343.56
2022-08-03T11:04:09.586Z,100349.94
2022-08-03T11:07:24.102Z,100342.03
2022-08-03T11:10:31.980Z,100329.28
2022-08-03T11:13:35.186Z,100337.75
2022-08-03T11:16:45.302Z,100336.25
2022-08-03T11:19:56.800Z,100336.34
2022-08-03T11:23:01.788Z,100344.06
2022-08-03T11:26:16.084Z,100334.38
2022-08-03T11:29:30.519Z,100331.00
2022-08-03T11:32:40.554Z,100330.06
2022-08-03T11:36:01.480Z,100326.78
2022-08-03T11:39:16.857Z,100324.75
2022-08-03T11:42:31.752Z,100319.91
2022-08-03T11:45:35.916Z,100313.81
2022-08-03T11:48:43.137Z,100315.88
2022-08-03T11:51:46.143Z,100316.50
2022-08-03T11:54:56.647Z,100312.38
2022-08-03T11:59:01.553Z,100306.69
2022-08-03T12:01:25.753Z,100303.84
2022-08-03T12:04:28.773Z,100305.59
2022-08-03T12:08:03.616Z,100298.34
2022-08-03T12:10:56.637Z,100293.03
2022-08-03T12:14:50.785Z,100299.44
2022-08-03T12:17:22.904Z,100294.94
2022-08-03T12:20:31.509Z,100298.50
2022-08-03T12:23:39.829Z,100289.97
2022-08-03T12:26:58.489Z,100289.78
2022-08-03T12:30:03.687Z,100288.31
2022-08-03T12:33:33.670Z,100286.94
2022-08-03T12:36:38.584Z,100274.06
2022-08-03T12:40:02.660Z,100288.88
2022-08-03T12:43:12.775Z,100277.03
2022-08-03T12:46:17.587Z,100273.81
2022-08-03T12:49:21.277Z,100268.38
2022-08-03T12:52:24.137Z,100252.19
2022-08-03T12:55:57.192Z,100264.84
2022-08-03T12:58:59.069Z,100268.28
2022-08-03T13:02:09.534Z,100262.34
2022-08-03T13:05:14.422Z,100256.75
2022-08-03T13:08:23.576Z,100253.19
2022-08-03T13:11:50.635Z,100249.25
2022-08-03T13:15:00.569Z,100244.59
2022-08-03T13:18:23.288Z,100237.78
2022-08-03T13:21:26.500Z,100239.09
2022-08-03T13:24:30.534Z,100233.47
2022-08-03T13:28:03.128Z,100226.16
2022-08-03T13:31:08.255Z,100226.28
2022-08-03T13:34:11.360Z,100224.53
2022-08-03T13:37:14.793Z,100221.50
2022-08-03T13:40:23.621Z,100224.44
2022-08-03T13:43:33.051Z,100225.22
2022-08-03T13:46:36.262Z,100222.03
2022-08-03T13:49:39.712Z,100218.47
2022-08-03T13:52:42.935Z,100206.72
2022-08-03T13:55:45.939Z,100209.63
2022-08-03T13:58:49.263Z,100203.94
2022-08-03T14:01:55.751Z,100209.72
2022-08-03T14:04:59.068Z,100203.75
2022-08-03T14:08:05.321Z,100187.62
2022-08-03T14:11:08.717Z,100190.84
2022-08-03T14:14:11.824Z,100189.97
2022-08-03T14:17:16.518Z,100188.66
2022-08-03T14:20:37.177Z,100191.38
2022-08-03T14:23:42.874Z,100183.69
2022-08-03T14:26:47.558Z,100192.38
2022-08-03T14:29:51.590Z,100177.03
2022-08-03T14:32:56.875Z,100177.94
2022-08-03T14:36:04.402Z,100182.13
2022-08-03T14:39:07.186Z,100172.72
2022-08-03T15:44:50.570Z,100143.25
2022-08-03T15:47:53.662Z,100148.16
2022-08-03T15:50:56.537Z,100145.56
2022-08-03T15:53:59.549Z,100144.19
2022-08-03T15:57:02.216Z,100137.06
2022-08-03T16:00:08.297Z,100139.47
2022-08-03T16:03:28.368Z,100143.09
2022-08-03T16:06:47.197Z,100137.28
2022-08-03T16:09:50.229Z,100140.28
2022-08-03T16:12:52.922Z,100144.84
2022-08-03T16:15:56.063Z,100141.56
2022-08-03T16:18:58.838Z,100146.53
2022-08-03T16:22:10.776Z,100142.81
2022-08-03T16:25:17.380Z,100137.62
2022-08-03T16:28:20.975Z,100132.88
2022-08-03T16:31:27.191Z,100136.97
2022-08-03T16:34:30.256Z,100127.88
2022-08-03T16:37:38.519Z,100123.41
2022-08-03T16:40:43.067Z,100125.88
2022-08-03T16:43:45.889Z,100124.81
2022-08-03T16:46:48.845Z,100131.13
2022-08-03T16:49:56.057Z,100132.72
2022-08-03T16:52:59.585Z,100136.94
2022-08-03T16:56:06.718Z,100129.63
2022-08-03T16:59:13.383Z,100134.28
2022-08-03T17:02:26.151Z,100132.28
2022-08-03T17:05:43.787Z,100130.12
2022-08-03T17:08:55.068Z,100136.06
2022-08-03T17:11:58.747Z,100141.59
2022-08-03T17:15:04.255Z,100143.75
2022-08-03T17:18:11.908Z,100146.56
2022-08-03T17:21:21.185Z,100147.06
2022-08-03T17:24:31.200Z,100150.78
2022-08-03T17:28:50.492Z,100154.78
2022-08-03T17:31:23.495Z,100146.03
2022-08-03T17:34:35.377Z,100160.41
2022-08-03T17:37:57.473Z,100151.12
2022-08-03T17:41:01.983Z,100156.34
